This is the latest recevied weather packets stored in our database for station/object IW0RQH-13. If no packets are shown the sender has not sent any weather packets the latest 10 day(s).
| Time | Temp. | Humidity | Pressure | Rain* | Wind** | Luminosity | Snow |
|---|---|---|---|---|---|---|---|
| 1777597203 | 11.11° C | 52% | 1021.5 hPa | 0 mm | - | 0 W/m² | - |
| 1777593604 | 11.11° C | 52% | 1021.3 hPa | 0 mm | - | 0 W/m² | - |
| 1777591098 | 11.11° C | 54% | 1021.3 hPa | 0 mm | - | 0 W/m² | - |
| 1777590543 | 11.67° C | 53% | 1021.2 hPa | 0 mm | - | 0 W/m² | - |
| 1777583345 | 11.67° C | 53% | 1020.9 hPa | 0 mm | - | 0 W/m² | - |
| 1777575245 | 12.78° C | 53% | 1019.3 hPa | 0 mm | - | 0 W/m² | - |
| 1777572003 | 13.89° C | 50% | 1018.7 hPa | 0 mm | - | 7 W/m² | - |
| 1777568403 | 15.56° C | 48% | 1018 hPa | 0 mm | - | 73 W/m² | - |
| 1777566963 | 15.56° C | 48% | 1017.9 hPa | 0 mm | - | 116 W/m² | - |
| 1777563903 | 16.11° C | 44% | 1017.9 hPa | 0 mm | - | 225 W/m² | - |
| 1777559223 | 17.78° C | 43% | 1018 hPa | 0 mm | - | 408 W/m² | - |
| 1777556704 | 17.78° C | 43% | 1018.4 hPa | 0 mm | - | 523 W/m² | - |
| 1777555625 | 17.78° C | 44% | 1018.3 hPa | 0 mm | - | 567 W/m² | - |
| 1777554003 | 17.78° C | 46% | 1018.5 hPa | 0 mm | - | 628 W/m² | - |
| 1777544283 | 16.67° C | 49% | 1019.1 hPa | 0 mm | - | 666 W/m² | - |
| 1777541246 | 15.56° C | 55% | 1019.3 hPa | 0 mm | - | 341 W/m² | - |
| 1777540143 | 16.11° C | 55% | 1019.3 hPa | 0 mm | - | 801 W/m² | - |
| 1777539243 | 15° C | 58% | 1019.1 hPa | 0 mm | - | 739 W/m² | - |
| 1777537623 | 14.44° C | 67% | 1018.9 hPa | 0 mm | - | 292 W/m² | - |
| 1777533504 | 15° C | 64% | 1018.2 hPa | 0 mm | - | 91 W/m² | - |
| 1777528803 | 15° C | 66% | 1017.8 hPa | 0 mm | - | 54 W/m² | - |
| 1777526283 | 15° C | 69% | 1017.3 hPa | 0 mm | - | 47 W/m² | - |
| 1777524303 | 15° C | 69% | 1017.1 hPa | 0 mm | - | 23 W/m² | - |
| 1777522144 | 15.56° C | 67% | 1016.8 hPa | 0 mm | - | 2 W/m² | - |
| 1777519083 | 15.56° C | 67% | 1016.7 hPa | 0 mm | - | 0 W/m² | - |
* Rain latest hour (hover to see other rain measurements)
** Current wind speed in m/s (hover to see current wind gust speed)